sensor_id;sensor_type;location;lat;lon;timestamp;pressure;altitude;pressure_sealevel;temperature;humidity
14117;BME280;7137;51.436;6.544;2022-09-30T00:03:00;100382.22;;;7.73;95.99
14117;BME280;7137;51.436;6.544;2022-09-30T00:06:03;100390.97;;;7.70;96.87
14117;BME280;7137;51.436;6.544;2022-09-30T00:09:06;100384.16;;;7.66;96.59
14117;BME280;7137;51.436;6.544;2022-09-30T00:12:09;100392.91;;;7.62;96.50
14117;BME280;7137;51.436;6.544;2022-09-30T00:15:10;100393.81;;;7.60;96.60
14117;BME280;7137;51.436;6.544;2022-09-30T00:18:12;100385.22;;;7.58;97.25
14117;BME280;7137;51.436;6.544;2022-09-30T00:21:14;100377.47;;;7.56;96.86
14117;BME280;7137;51.436;6.544;2022-09-30T00:24:17;100372.31;;;7.55;96.99
14117;BME280;7137;51.436;6.544;2022-09-30T00:27:20;100385.28;;;7.55;96.41
14117;BME280;7137;51.436;6.544;2022-09-30T00:30:21;100384.53;;;7.51;97.02
14117;BME280;7137;51.436;6.544;2022-09-30T00:33:23;100383.72;;;7.49;97.13
14117;BME280;7137;51.436;6.544;2022-09-30T00:36:24;100389.81;;;7.48;97.87
14117;BME280;7137;51.436;6.544;2022-09-30T00:39:28;100384.66;;;7.47;96.92
14117;BME280;7137;51.436;6.544;2022-09-30T00:42:30;100392.44;;;7.47;97.00
14117;BME280;7137;51.436;6.544;2022-09-30T00:45:32;100388.16;;;7.44;96.88
14117;BME280;7137;51.436;6.544;2022-09-30T00:48:35;100389.97;;;7.40;97.37
14117;BME280;7137;51.436;6.544;2022-09-30T00:51:42;100397.81;;;7.39;96.90
14117;BME280;7137;51.436;6.544;2022-09-30T00:54:47;100408.25;;;7.37;96.57
14117;BME280;7137;51.436;6.544;2022-09-30T00:57:50;100406.53;;;7.36;97.87
14117;BME280;7137;51.436;6.544;2022-09-30T01:00:52;100412.66;;;7.34;96.55
14117;BME280;7137;51.436;6.544;2022-09-30T01:03:58;100413.56;;;7.31;96.85
14117;BME280;7137;51.436;6.544;2022-09-30T01:07:03;100409.34;;;7.27;97.30
14117;BME280;7137;51.436;6.544;2022-09-30T01:10:07;100411.06;;;7.27;96.40
14117;BME280;7137;51.436;6.544;2022-09-30T01:13:09;100406.84;;;7.23;96.66
14117;BME280;7137;51.436;6.544;2022-09-30T01:16:21;100406.94;;;7.20;96.43
14117;BME280;7137;51.436;6.544;2022-09-30T01:20:00;100415.63;;;7.17;97.40
14117;BME280;7137;51.436;6.544;2022-09-30T01:23:20;100413.06;;;7.15;96.54
14117;BME280;7137;51.436;6.544;2022-09-30T01:26:49;100408.88;;;7.10;96.81
14117;BME280;7137;51.436;6.544;2022-09-30T01:30:08;100402.91;;;7.06;97.02
14117;BME280;7137;51.436;6.544;2022-09-30T01:33:30;100412.47;;;7.03;97.19
14117;BME280;7137;51.436;6.544;2022-09-30T01:36:44;100406.38;;;7.05;97.22
14117;BME280;7137;51.436;6.544;2022-09-30T01:39:57;100409.75;;;7.09;98.15
14117;BME280;7137;51.436;6.544;2022-09-30T01:43:05;100404.41;;;7.15;98.23
14117;BME280;7137;51.436;6.544;2022-09-30T01:46:19;100411.38;;;7.13;98.42
14117;BME280;7137;51.436;6.544;2022-09-30T01:49:29;100414.03;;;7.11;99.65
14117;BME280;7137;51.436;6.544;2022-09-30T01:52:38;100406.28;;;7.10;99.82
14117;BME280;7137;51.436;6.544;2022-09-30T01:55:45;100399.41;;;7.07;100.00
14117;BME280;7137;51.436;6.544;2022-09-30T01:58:53;100402.94;;;7.03;100.00
14117;BME280;7137;51.436;6.544;2022-09-30T02:01:58;100401.22;;;7.02;100.00
14117;BME280;7137;51.436;6.544;2022-09-30T02:05:09;100399.59;;;6.98;100.00
14117;BME280;7137;51.436;6.544;2022-09-30T02:08:18;100399.63;;;6.97;100.00
14117;BME280;7137;51.436;6.544;2022-09-30T02:11:24;100395.34;;;6.96;100.00
14117;BME280;7137;51.436;6.544;2022-09-30T02:14:28;100394.50;;;6.94;100.00
14117;BME280;7137;51.436;6.544;2022-09-30T02:17:32;100400.56;;;6.94;100.00
14117;BME280;7137;51.436;6.544;2022-09-30T02:20:43;100402.38;;;6.91;100.00
14117;BME280;7137;51.436;6.544;2022-09-30T02:23:48;100401.50;;;6.92;99.96
14117;BME280;7137;51.436;6.544;2022-09-30T02:26:53;100403.19;;;6.93;100.00
14117;BME280;7137;51.436;6.544;2022-09-30T02:29:58;100397.13;;;6.94;100.00
14117;BME280;7137;51.436;6.544;2022-09-30T02:33:05;100403.13;;;6.96;100.00
14117;BME280;7137;51.436;6.544;2022-09-30T02:36:16;100410.13;;;6.92;100.00
14117;BME280;7137;51.436;6.544;2022-09-30T02:39:26;100398.06;;;6.88;100.00
14117;BME280;7137;51.436;6.544;2022-09-30T02:42:30;100406.00;;;6.82;100.00
14117;BME280;7137;51.436;6.544;2022-09-30T02:45:40;100409.53;;;6.79;100.00
14117;BME280;7137;51.436;6.544;2022-09-30T02:48:47;100413.06;;;6.75;100.00
14117;BME280;7137;51.436;6.544;2022-09-30T02:52:01;100417.41;;;6.75;100.00
14117;BME280;7137;51.436;6.544;2022-09-30T02:55:16;100418.31;;;6.72;100.00
14117;BME280;7137;51.436;6.544;2022-09-30T02:58:20;100412.31;;;6.70;99.94
14117;BME280;7137;51.436;6.544;2022-09-30T03:01:25;100415.78;;;6.69;99.30
14117;BME280;7137;51.436;6.544;2022-09-30T03:04:29;100414.06;;;6.70;99.71
14117;BME280;7137;51.436;6.544;2022-09-30T03:07:35;100414.06;;;6.70;100.00
14117;BME280;7137;51.436;6.544;2022-09-30T03:10:38;100421.09;;;6.65;99.82
14117;BME280;7137;51.436;6.544;2022-09-30T03:14:16;100424.69;;;6.58;100.00
14117;BME280;7137;51.436;6.544;2022-09-30T03:17:35;100422.06;;;6.58;100.00
14117;BME280;7137;51.436;6.544;2022-09-30T03:20:52;100432.53;;;6.54;100.00
14117;BME280;7137;51.436;6.544;2022-09-30T03:24:16;100432.56;;;6.53;100.00
14117;BME280;7137;51.436;6.544;2022-09-30T03:27:31;100442.09;;;6.52;100.00
14117;BME280;7137;51.436;6.544;2022-09-30T03:30:40;100441.22;;;6.52;100.00
14117;BME280;7137;51.436;6.544;2022-09-30T03:33:50;100445.50;;;6.54;100.00
14117;BME280;7137;51.436;6.544;2022-09-30T03:36:59;100449.84;;;6.54;100.00
14117;BME280;7137;51.436;6.544;2022-09-30T03:40:08;100448.03;;;6.58;100.00
14117;BME280;7137;51.436;6.544;2022-09-30T03:43:19;100452.25;;;6.63;100.00
14117;BME280;7137;51.436;6.544;2022-09-30T03:46:23;100446.13;;;6.67;100.00
14117;BME280;7137;51.436;6.544;2022-09-30T03:49:30;100451.31;;;6.67;100.00
14117;BME280;7137;51.436;6.544;2022-09-30T03:52:34;100450.44;;;6.67;100.00
14117;BME280;7137;51.436;6.544;2022-09-30T03:55:44;100460.03;;;6.63;100.00
14117;BME280;7137;51.436;6.544;2022-09-30T03:58:48;100465.31;;;6.59;100.00
14117;BME280;7137;51.436;6.544;2022-09-30T04:01:49;100470.59;;;6.54;100.00
14117;BME280;7137;51.436;6.544;2022-09-30T04:04:51;100473.22;;;6.52;100.00
14117;BME280;7137;51.436;6.544;2022-09-30T04:07:52;100478.50;;;6.46;100.00
14117;BME280;7137;51.436;6.544;2022-09-30T04:10:56;100479.34;;;6.47;100.00
14117;BME280;7137;51.436;6.544;2022-09-30T04:13:57;100477.63;;;6.49;100.00
14117;BME280;7137;51.436;6.544;2022-09-30T04:17:01;100474.19;;;6.45;100.00
14117;BME280;7137;51.436;6.544;2022-09-30T04:20:04;100476.78;;;6.45;100.00
14117;BME280;7137;51.436;6.544;2022-09-30T04:23:05;100473.31;;;6.46;100.00
14117;BME280;7137;51.436;6.544;2022-09-30T04:26:10;100473.28;;;6.49;100.00
14117;BME280;7137;51.436;6.544;2022-09-30T04:29:13;100475.97;;;6.43;100.00
14117;BME280;7137;51.436;6.544;2022-09-30T04:32:14;100482.03;;;6.42;100.00
14117;BME280;7137;51.436;6.544;2022-09-30T04:35:16;100483.00;;;6.38;100.00
14117;BME280;7137;51.436;6.544;2022-09-30T04:38:17;100487.31;;;6.38;100.00
14117;BME280;7137;51.436;6.544;2022-09-30T04:41:20;100497.69;;;6.38;100.00
14117;BME280;7137;51.436;6.544;2022-09-30T04:44:22;100502.91;;;6.36;100.00
14117;BME280;7137;51.436;6.544;2022-09-30T04:47:24;100496.88;;;6.36;100.00
14117;BME280;7137;51.436;6.544;2022-09-30T04:50:25;100499.44;;;6.37;100.00
14117;BME280;7137;51.436;6.544;2022-09-30T04:53:27;100495.16;;;6.33;100.00
14117;BME280;7137;51.436;6.544;2022-09-30T04:56:30;100497.75;;;6.35;100.00
14117;BME280;7137;51.436;6.544;2022-09-30T04:59:32;100509.03;;;6.32;100.00
14117;BME280;7137;51.436;6.544;2022-09-30T05:02:34;100521.09;;;6.33;100.00
14117;BME280;7137;51.436;6.544;2022-09-30T05:05:35;100521.19;;;6.29;100.00
14117;BME280;7137;51.436;6.544;2022-09-30T05:08:37;100522.91;;;6.30;100.00
14117;BME280;7137;51.436;6.544;2022-09-30T05:11:40;100528.97;;;6.29;100.00
14117;BME280;7137;51.436;6.544;2022-09-30T05:14:42;100541.97;;;6.27;100.00
14117;BME280;7137;51.436;6.544;2022-09-30T05:17:43;100548.00;;;6.29;100.00
14117;BME280;7137;51.436;6.544;2022-09-30T05:20:48;100560.91;;;6.32;100.00
14117;BME280;7137;51.436;6.544;2022-09-30T05:23:52;100573.53;;;6.53;100.00
14117;BME280;7137;51.436;6.544;2022-09-30T05:26:55;100579.66;;;6.49;100.00
14117;BME280;7137;51.436;6.544;2022-09-30T05:29:58;100579.88;;;6.36;100.00
14117;BME280;7137;51.436;6.544;2022-09-30T05:32:59;100573.06;;;6.29;100.00
14117;BME280;7137;51.436;6.544;2022-09-30T05:36:03;100565.38;;;6.24;100.00
14117;BME280;7137;51.436;6.544;2022-09-30T05:39:05;100568.78;;;6.26;100.00
14117;BME280;7137;51.436;6.544;2022-09-30T05:42:08;100580.94;;;6.24;100.00
14117;BME280;7137;51.436;6.544;2022-09-30T05:45:10;100590.47;;;6.23;100.00
14117;BME280;7137;51.436;6.544;2022-09-30T05:48:11;100588.66;;;6.27;100.00
14117;BME280;7137;51.436;6.544;2022-09-30T05:51:13;100580.81;;;6.30;100.00
14117;BME280;7137;51.436;6.544;2022-09-30T05:54:14;100590.28;;;6.34;100.00
14117;BME280;7137;51.436;6.544;2022-09-30T05:57:17;100592.81;;;6.37;100.00
14117;BME280;7137;51.436;6.544;2022-09-30T06:00:19;100587.59;;;6.39;100.00
14117;BME280;7137;51.436;6.544;2022-09-30T06:03:21;100595.28;;;6.45;100.00
14117;BME280;7137;51.436;6.544;2022-09-30T06:06:23;100590.06;;;6.48;100.00
14117;BME280;7137;51.436;6.544;2022-09-30T06:09:24;100589.06;;;6.55;100.00
14117;BME280;7137;51.436;6.544;2022-09-30T06:12:27;100592.41;;;6.63;100.00
14117;BME280;7137;51.436;6.544;2022-09-30T06:15:29;100595.63;;;6.76;100.00
14117;BME280;7137;51.436;6.544;2022-09-30T06:18:31;100596.31;;;6.85;100.00
14117;BME280;7137;51.436;6.544;2022-09-30T06:21:32;100597.91;;;6.93;100.00
14117;BME280;7137;51.436;6.544;2022-09-30T06:24:34;100596.91;;;7.00;100.00
14117;BME280;7137;51.436;6.544;2022-09-30T06:27:37;100607.97;;;7.09;100.00
14117;BME280;7137;51.436;6.544;2022-09-30T06:30:39;100612.94;;;7.22;100.00
14117;BME280;7137;51.436;6.544;2022-09-30T06:33:40;100623.06;;;7.35;100.00
14117;BME280;7137;51.436;6.544;2022-09-30T06:36:42;100629.75;;;7.49;100.00
14117;BME280;7137;51.436;6.544;2022-09-30T06:39:44;100621.59;;;7.65;100.00
14117;BME280;7137;51.436;6.544;2022-09-30T06:42:47;100622.84;;;7.86;100.00
14117;BME280;7137;51.436;6.544;2022-09-30T06:45:48;100627.09;;;7.92;100.00
14117;BME280;7137;51.436;6.544;2022-09-30T06:48:54;100628.38;;;8.11;100.00
14117;BME280;7137;51.436;6.544;2022-09-30T06:51:55;100635.22;;;8.15;99.56
14117;BME280;7137;51.436;6.544;2022-09-30T06:54:59;100632.38;;;8.26;99.43
14117;BME280;7137;51.436;6.544;2022-09-30T06:58:03;100631.94;;;8.46;98.70
14117;BME280;7137;51.436;6.544;2022-09-30T07:01:05;100642.28;;;8.49;99.52
14117;BME280;7137;51.436;6.544;2022-09-30T07:04:08;100643.34;;;8.40;100.00
14117;BME280;7137;51.436;6.544;2022-09-30T07:07:10;100642.59;;;8.71;100.00
14117;BME280;7137;51.436;6.544;2022-09-30T07:10:12;100641.16;;;8.93;100.00
14117;BME280;7137;51.436;6.544;2022-09-30T07:13:15;100652.84;;;9.11;100.00
14117;BME280;7137;51.436;6.544;2022-09-30T07:16:18;100653.31;;;9.58;98.71
14117;BME280;7137;51.436;6.544;2022-09-30T07:19:20;100644.75;;;10.39;100.00
14117;BME280;7137;51.436;6.544;2022-09-30T07:22:22;100644.94;;;13.14;100.00
14117;BME280;7137;51.436;6.544;2022-09-30T07:25:33;100661.50;;;14.85;100.00
14117;BME280;7137;51.436;6.544;2022-09-30T07:28:36;100659.63;;;15.72;100.00
14117;BME280;7137;51.436;6.544;2022-09-30T07:31:39;100654.06;;;15.94;100.00
14117;BME280;7137;51.436;6.544;2022-09-30T07:34:41;100666.13;;;17.36;77.96
14117;BME280;7137;51.436;6.544;2022-09-30T07:37:43;100668.03;;;18.05;66.06
14117;BME280;7137;51.436;6.544;2022-09-30T07:40:53;100674.19;;;18.74;58.09
14117;BME280;7137;51.436;6.544;2022-09-30T07:43:56;100675.34;;;19.47;53.17
14117;BME280;7137;51.436;6.544;2022-09-30T07:46:59;100680.41;;;20.14;50.28
14117;BME280;7137;51.436;6.544;2022-09-30T07:50:01;100673.75;;;20.32;50.28
14117;BME280;7137;51.436;6.544;2022-09-30T07:53:03;100683.63;;;20.43;50.14
14117;BME280;7137;51.436;6.544;2022-09-30T07:56:06;100674.00;;;21.23;47.87
14117;BME280;7137;51.436;6.544;2022-09-30T07:59:10;100680.84;;;21.39;47.16
14117;BME280;7137;51.436;6.544;2022-09-30T08:02:14;100677.84;;;21.66;46.34
14117;BME280;7137;51.436;6.544;2022-09-30T08:05:16;100682.47;;;21.75;45.94
14117;BME280;7137;51.436;6.544;2022-09-30T08:08:18;100686.81;;;22.09;44.81
14117;BME280;7137;51.436;6.544;2022-09-30T08:11:20;100679.66;;;21.65;45.57
14117;BME280;7137;51.436;6.544;2022-09-30T08:14:25;100683.25;;;22.54;44.80
14117;BME280;7137;51.436;6.544;2022-09-30T08:17:27;100687.63;;;23.07;43.86
14117;BME280;7137;51.436;6.544;2022-09-30T08:20:28;100692.69;;;23.31;42.70
14117;BME280;7137;51.436;6.544;2022-09-30T08:23:31;100694.44;;;23.00;42.97
14117;BME280;7137;51.436;6.544;2022-09-30T08:26:32;100688.88;;;22.17;43.71
14117;BME280;7137;51.436;6.544;2022-09-30T08:29:36;100692.13;;;22.64;44.90
14117;BME280;7137;51.436;6.544;2022-09-30T08:32:38;100692.22;;;23.05;44.21
14117;BME280;7137;51.436;6.544;2022-09-30T08:35:39;100692.94;;;22.87;44.34
14117;BME280;7137;51.436;6.544;2022-09-30T08:38:42;100684.78;;;22.99;42.61
14117;BME280;7137;51.436;6.544;2022-09-30T08:42:11;100684.75;;;23.20;42.29
14117;BME280;7137;51.436;6.544;2022-09-30T08:45:24;100688.84;;;22.71;44.00
14117;BME280;7137;51.436;6.544;2022-09-30T08:48:40;100688.53;;;22.97;42.97
14117;BME280;7137;51.436;6.544;2022-09-30T08:51:46;100685.16;;;22.95;43.64
14117;BME280;7137;51.436;6.544;2022-09-30T08:54:52;100685.31;;;22.82;45.43
14117;BME280;7137;51.436;6.544;2022-09-30T08:57:55;100690.03;;;23.31;43.74
14117;BME280;7137;51.436;6.544;2022-09-30T09:01:03;100681.38;;;23.90;41.71
14117;BME280;7137;51.436;6.544;2022-09-30T09:04:06;100677.03;;;24.30;41.55
14117;BME280;7137;51.436;6.544;2022-09-30T09:07:18;100686.47;;;24.43;41.14
14117;BME280;7137;51.436;6.544;2022-09-30T09:10:28;100683.88;;;23.82;42.42
14117;BME280;7137;51.436;6.544;2022-09-30T09:13:41;100685.25;;;22.18;44.44
14117;BME280;7137;51.436;6.544;2022-09-30T09:16:59;100677.75;;;22.66;44.57
14117;BME280;7137;51.436;6.544;2022-09-30T09:20:12;100681.75;;;22.06;45.77
14117;BME280;7137;51.436;6.544;2022-09-30T09:26:15;100673.00;;;21.37;47.41
14117;BME280;7137;51.436;6.544;2022-09-30T09:29:24;100679.16;;;20.43;50.33
14117;BME280;7137;51.436;6.544;2022-09-30T09:32:29;100682.72;;;20.55;50.91
14117;BME280;7137;51.436;6.544;2022-09-30T09:35:38;100681.78;;;20.91;49.82
14117;BME280;7137;51.436;6.544;2022-09-30T09:38:57;100690.16;;;20.74;52.22
14117;BME280;7137;51.436;6.544;2022-09-30T09:42:09;100689.47;;;19.86;53.29
14117;BME280;7137;51.436;6.544;2022-09-30T09:45:24;100686.03;;;20.46;51.81
14117;BME280;7137;51.436;6.544;2022-09-30T09:48:29;100683.31;;;19.35;54.73
14117;BME280;7137;51.436;6.544;2022-09-30T09:51:36;100692.28;;;19.19;55.92
14117;BME280;7137;51.436;6.544;2022-09-30T09:54:42;100685.84;;;19.49;55.01
14117;BME280;7137;51.436;6.544;2022-09-30T09:57:44;100679.25;;;19.04;55.38
14117;BME280;7137;51.436;6.544;2022-09-30T10:00:46;100676.75;;;18.75;58.34
14117;BME280;7137;51.436;6.544;2022-09-30T10:04:27;100677.34;;;18.66;58.89
14117;BME280;7137;51.436;6.544;2022-09-30T10:07:32;100666.38;;;17.90;59.96
14117;BME280;7137;51.436;6.544;2022-09-30T10:10:42;100666.50;;;18.42;60.46
14117;BME280;7137;51.436;6.544;2022-09-30T10:13:45;100649.88;;;18.13;62.19
14117;BME280;7137;51.436;6.544;2022-09-30T10:16:47;100648.97;;;17.43;62.38
14117;BME280;7137;51.436;6.544;2022-09-30T10:19:51;100654.94;;;17.89;63.66
14117;BME280;7137;51.436;6.544;2022-09-30T10:23:07;100658.44;;;17.75;62.47
14117;BME280;7137;51.436;6.544;2022-09-30T10:26:17;100656.25;;;17.82;62.38
14117;BME280;7137;51.436;6.544;2022-09-30T10:29:26;100657.38;;;17.64;63.25
14117;BME280;7137;51.436;6.544;2022-09-30T10:32:29;100669.34;;;17.41;64.68
14117;BME280;7137;51.436;6.544;2022-09-30T10:35:32;100666.72;;;17.55;63.98
14117;BME280;7137;51.436;6.544;2022-09-30T10:38:34;100675.13;;;17.47;63.56
14117;BME280;7137;51.436;6.544;2022-09-30T10:41:37;100668.03;;;17.62;64.32
14117;BME280;7137;51.436;6.544;2022-09-30T10:44:42;100668.31;;;17.58;64.25
14117;BME280;7137;51.436;6.544;2022-09-30T10:47:49;100673.03;;;17.38;64.19
14117;BME280;7137;51.436;6.544;2022-09-30T10:50:54;100669.91;;;17.32;63.82
14117;BME280;7137;51.436;6.544;2022-09-30T10:53:56;100673.97;;;17.37;64.77
14117;BME280;7137;51.436;6.544;2022-09-30T10:57:00;100670.41;;;17.67;63.26
14117;BME280;7137;51.436;6.544;2022-09-30T11:00:06;100678.22;;;18.11;62.52
14117;BME280;7137;51.436;6.544;2022-09-30T11:03:16;100678.53;;;17.92;63.97
14117;BME280;7137;51.436;6.544;2022-09-30T11:06:21;100661.56;;;18.23;61.99
14117;BME280;7137;51.436;6.544;2022-09-30T11:09:32;100665.50;;;18.57;63.56
14117;BME280;7137;51.436;6.544;2022-09-30T11:12:41;100666.94;;;18.36;59.90
14117;BME280;7137;51.436;6.544;2022-09-30T11:15:56;100663.75;;;18.44;58.68
14117;BME280;7137;51.436;6.544;2022-09-30T11:19:06;100674.84;;;18.77;58.25
14117;BME280;7137;51.436;6.544;2022-09-30T11:22:30;100662.31;;;18.66;58.60
14117;BME280;7137;51.436;6.544;2022-09-30T11:25:39;100666.97;;;19.03;58.16
14117;BME280;7137;51.436;6.544;2022-09-30T11:29:07;100659.25;;;19.50;56.92
14117;BME280;7137;51.436;6.544;2022-09-30T11:32:22;100650.72;;;20.81;53.48
14117;BME280;7137;51.436;6.544;2022-09-30T11:35:39;100650.00;;;20.31;51.88
14117;BME280;7137;51.436;6.544;2022-09-30T11:38:54;100649.75;;;19.97;52.49
14117;BME280;7137;51.436;6.544;2022-09-30T11:42:05;100643.69;;;20.08;52.58
14117;BME280;7137;51.436;6.544;2022-09-30T11:45:20;100656.22;;;18.91;58.31
14117;BME280;7137;51.436;6.544;2022-09-30T11:48:37;100656.88;;;18.95;57.34
14117;BME280;7137;51.436;6.544;2022-09-30T11:51:45;100651.16;;;18.61;56.05
14117;BME280;7137;51.436;6.544;2022-09-30T11:55:02;100655.47;;;18.77;55.55
14117;BME280;7137;51.436;6.544;2022-09-30T11:58:12;100645.50;;;18.53;55.25
14117;BME280;7137;51.436;6.544;2022-09-30T12:01:20;100649.00;;;18.27;58.84
14117;BME280;7137;51.436;6.544;2022-09-30T12:04:26;100638.38;;;18.41;56.56
14117;BME280;7137;51.436;6.544;2022-09-30T12:07:37;100646.34;;;17.86;57.26
14117;BME280;7137;51.436;6.544;2022-09-30T12:10:44;100636.63;;;18.27;57.79
14117;BME280;7137;51.436;6.544;2022-09-30T12:13:50;100630.78;;;18.49;58.23
14117;BME280;7137;51.436;6.544;2022-09-30T12:16:54;100631.88;;;18.59;56.39
14117;BME280;7137;51.436;6.544;2022-09-30T12:20:02;100632.13;;;18.15;55.21
14117;BME280;7137;51.436;6.544;2022-09-30T12:23:12;100633.00;;;18.01;56.97
14117;BME280;7137;51.436;6.544;2022-09-30T12:26:18;100632.00;;;17.90;58.39
14117;BME280;7137;51.436;6.544;2022-09-30T12:29:23;100634.53;;;17.91;57.76
14117;BME280;7137;51.436;6.544;2022-09-30T12:33:09;100634.56;;;17.77;57.39
14117;BME280;7137;51.436;6.544;2022-09-30T12:36:38;100625.78;;;17.91;57.98
14117;BME280;7137;51.436;6.544;2022-09-30T12:39:54;100615.84;;;17.94;56.44
14117;BME280;7137;51.436;6.544;2022-09-30T12:43:14;100613.19;;;17.94;56.84
14117;BME280;7137;51.436;6.544;2022-09-30T12:46:28;100613.06;;;18.10;56.16
14117;BME280;7137;51.436;6.544;2022-09-30T12:49:40;100611.31;;;18.23;55.16
14117;BME280;7137;51.436;6.544;2022-09-30T12:52:43;100615.41;;;18.15;55.61
14117;BME280;7137;51.436;6.544;2022-09-30T12:55:45;100603.31;;;17.84;56.78
14117;BME280;7137;51.436;6.544;2022-09-30T12:58:50;100604.63;;;17.91;56.08
14117;BME280;7137;51.436;6.544;2022-09-30T13:01:52;100601.88;;;17.92;56.47
14117;BME280;7137;51.436;6.544;2022-09-30T13:08:48;100597.78;;;18.01;57.30
14117;BME280;7137;51.436;6.544;2022-09-30T13:12:16;100585.28;;;18.17;57.50
14117;BME280;7137;51.436;6.544;2022-09-30T13:15:39;100578.53;;;18.26;56.99
14117;BME280;7137;51.436;6.544;2022-09-30T13:19:00;100588.69;;;18.19;55.09
14117;BME280;7137;51.436;6.544;2022-09-30T13:25:53;100581.13;;;17.86;55.94
14117;BME280;7137;51.436;6.544;2022-09-30T13:29:32;100584.81;;;17.84;56.67
14117;BME280;7137;51.436;6.544;2022-09-30T13:32:39;100573.56;;;17.94;56.92
14117;BME280;7137;51.436;6.544;2022-09-30T13:35:49;100570.22;;;18.32;55.36
14117;BME280;7137;51.436;6.544;2022-09-30T13:39:17;100565.22;;;18.27;54.48
14117;BME280;7137;51.436;6.544;2022-09-30T13:42:23;100566.69;;;18.19;55.42
14117;BME280;7137;51.436;6.544;2022-09-30T13:45:30;100566.72;;;18.31;54.75
14117;BME280;7137;51.436;6.544;2022-09-30T13:48:41;100553.69;;;18.01;54.99
14117;BME280;7137;51.436;6.544;2022-09-30T13:51:45;100567.84;;;18.00;56.31
14117;BME280;7137;51.436;6.544;2022-09-30T13:54:49;100550.56;;;18.09;56.55
14117;BME280;7137;51.436;6.544;2022-09-30T13:58:15;100562.63;;;18.13;55.47
14117;BME280;7137;51.436;6.544;2022-09-30T14:01:31;100564.88;;;17.92;56.03
14117;BME280;7137;51.436;6.544;2022-09-30T14:04:50;100553.28;;;17.80;55.79
14117;BME280;7137;51.436;6.544;2022-09-30T14:08:12;100551.44;;;17.68;55.90
14117;BME280;7137;51.436;6.544;2022-09-30T14:11:25;100547.47;;;17.75;55.66
14117;BME280;7137;51.436;6.544;2022-09-30T14:14:51;100552.44;;;17.80;54.89
14117;BME280;7137;51.436;6.544;2022-09-30T14:18:20;100542.31;;;17.87;54.34
14117;BME280;7137;51.436;6.544;2022-09-30T14:21:36;100557.34;;;18.13;54.79
14117;BME280;7137;51.436;6.544;2022-09-30T14:24:39;100554.16;;;18.08;53.12
14117;BME280;7137;51.436;6.544;2022-09-30T14:27:52;100548.13;;;17.79;52.98
14117;BME280;7137;51.436;6.544;2022-09-30T14:30:59;100540.56;;;17.59;54.24
14117;BME280;7137;51.436;6.544;2022-09-30T14:34:14;100546.72;;;17.16;56.32
14117;BME280;7137;51.436;6.544;2022-09-30T14:37:22;100541.72;;;17.40;56.52
14117;BME280;7137;51.436;6.544;2022-09-30T14:40:28;100539.00;;;17.28;55.53
14117;BME280;7137;51.436;6.544;2022-09-30T14:43:31;100532.09;;;17.39;56.57
14117;BME280;7137;51.436;6.544;2022-09-30T14:46:36;100522.59;;;17.37;55.83
14117;BME280;7137;51.436;6.544;2022-09-30T14:49:39;100519.84;;;17.52;56.37
14117;BME280;7137;51.436;6.544;2022-09-30T14:52:43;100514.25;;;17.71;54.85
14117;BME280;7137;51.436;6.544;2022-09-30T14:55:48;100508.38;;;17.66;55.19
14117;BME280;7137;51.436;6.544;2022-09-30T14:58:50;100506.22;;;17.59;55.14
14117;BME280;7137;51.436;6.544;2022-09-30T15:01:57;100513.88;;;17.63;55.55
14117;BME280;7137;51.436;6.544;2022-09-30T15:04:59;100505.56;;;17.55;56.08
14117;BME280;7137;51.436;6.544;2022-09-30T15:08:10;100510.97;;;17.54;56.60
14117;BME280;7137;51.436;6.544;2022-09-30T15:11:17;100504.44;;;17.45;56.84
14117;BME280;7137;51.436;6.544;2022-09-30T15:14:20;100504.63;;;17.56;55.21
14117;BME280;7137;51.436;6.544;2022-09-30T15:17:24;100502.44;;;17.77;54.97
14117;BME280;7137;51.436;6.544;2022-09-30T15:20:29;100501.59;;;17.62;55.00
14117;BME280;7137;51.436;6.544;2022-09-30T15:23:35;100495.19;;;17.66;54.97
14117;BME280;7137;51.436;6.544;2022-09-30T15:26:38;100495.19;;;17.66;55.97
14117;BME280;7137;51.436;6.544;2022-09-30T15:29:53;100502.81;;;17.71;56.53
14117;BME280;7137;51.436;6.544;2022-09-30T15:32:58;100496.09;;;17.79;54.44
14117;BME280;7137;51.436;6.544;2022-09-30T15:36:04;100497.50;;;17.85;54.21
14117;BME280;7137;51.436;6.544;2022-09-30T15:39:17;100489.50;;;17.72;55.08
14117;BME280;7137;51.436;6.544;2022-09-30T15:42:32;100499.75;;;17.50;55.16
14117;BME280;7137;51.436;6.544;2022-09-30T15:45:36;100503.72;;;17.43;54.60
14117;BME280;7137;51.436;6.544;2022-09-30T15:48:39;100506.00;;;17.35;56.33
14117;BME280;7137;51.436;6.544;2022-09-30T15:51:43;100499.28;;;17.29;56.45
14117;BME280;7137;51.436;6.544;2022-09-30T15:54:46;100498.75;;;17.24;56.04
14117;BME280;7137;51.436;6.544;2022-09-30T15:57:48;100502.63;;;16.90;58.00
14117;BME280;7137;51.436;6.544;2022-09-30T16:00:52;100508.47;;;16.81;57.82
14117;BME280;7137;51.436;6.544;2022-09-30T16:03:56;100511.03;;;16.52;57.89
14117;BME280;7137;51.436;6.544;2022-09-30T16:07:04;100505.66;;;16.54;58.67
14117;BME280;7137;51.436;6.544;2022-09-30T16:10:17;100517.69;;;16.88;59.25
14117;BME280;7137;51.436;6.544;2022-09-30T16:13:20;100518.16;;;16.80;58.78
14117;BME280;7137;51.436;6.544;2022-09-30T16:16:26;100521.56;;;16.52;60.21
14117;BME280;7137;51.436;6.544;2022-09-30T16:19:29;100527.38;;;16.43;59.14
14117;BME280;7137;51.436;6.544;2022-09-30T16:22:47;100519.84;;;16.67;60.25
14117;BME280;7137;51.436;6.544;2022-09-30T16:26:11;100512.50;;;16.42;61.00
14117;BME280;7137;51.436;6.544;2022-09-30T16:29:13;100510.91;;;16.40;61.95
14117;BME280;7137;51.436;6.544;2022-09-30T16:32:14;100507.94;;;16.30;60.25
14117;BME280;7137;51.436;6.544;2022-09-30T16:35:18;100514.00;;;16.46;62.29
14117;BME280;7137;51.436;6.544;2022-09-30T16:38:20;100513.22;;;16.30;61.45
14117;BME280;7137;51.436;6.544;2022-09-30T16:41:24;100516.59;;;16.02;62.03
14117;BME280;7137;51.436;6.544;2022-09-30T16:44:26;100505.16;;;16.17;62.04
14117;BME280;7137;51.436;6.544;2022-09-30T16:47:29;100504.03;;;16.07;63.42